Карточка аэропорта URRP

Внимание!
Информация на этой странице в стадии наполнения.
Если вы не увидели какой-то информации, или заметили неточность - пожалуйста сообщите нам!
Спасибо!
Команда RU-STAFF
Название аэропортаПлатов
Название аэропорта (англ.)Platov
Превышение282 ft. (86 m.)
Координаты47°29.634', 39°55.482'
Высота перехода3500 ft
Эшелон переходаFL50 (QNH >= 996); FL60 (QNH < 996)
Коды ответчика1001-1017
Зона ОрВДРостов-на-Дону РПИ (URRV)
Данные METARURRP 070100Z 06007MPS 9999 SCT012 SCT024 M08/M10 Q1023 R05/CLRD70 TEMPO 04009G16MPS RMK QFE762/1017
Проноз погоды (TAF)URRP 061959Z 0621/0721 05008G14MPS 6000 -SN FEW010 BKN016 TEMPO 0621/0703 -FZDZ OVC004 BECMG 0703/0706 04010G17MPS TEMPO 0706/0721 06012G19MPS 3000 -SN BLSN SCT004 OVC016
NOTAMshow/hide NOTAM
AWOS   TABLE

Информация о ВПП

ВПП Длина ВПП (м.) Покрытие Курс ВПП Частота ILS
053900Цементобетон46111.5
233900Цементобетон226110.9

Диспетчерские позиции

Позывной Наименование органа УВД Частота
URRP_TWRПлатов-Вышка119.7
URRP_R_APPПлатов - Круг121.2
URRP_GNDПлатов - руление119.0
URRP_DELПлатов-деливери127.1
URRP_APPПлатов-подход128.2



Спутниковое изображение